sensor_id;sensor_type;location;lat;lon;timestamp;temperature;humidity
30206;DHT22;17010;51.306;3.150;2023-05-15T00:02:03;11.30;99.90
30206;DHT22;17010;51.306;3.150;2023-05-15T00:04:29;11.30;99.90
30206;DHT22;17010;51.306;3.150;2023-05-15T00:06:56;11.30;99.90
30206;DHT22;17010;51.306;3.150;2023-05-15T00:09:23;11.20;99.90
30206;DHT22;17010;51.306;3.150;2023-05-15T00:11:49;11.20;99.90
30206;DHT22;17010;51.306;3.150;2023-05-15T00:14:16;11.20;99.90
30206;DHT22;17010;51.306;3.150;2023-05-15T00:16:44;11.10;99.90
30206;DHT22;17010;51.306;3.150;2023-05-15T00:19:12;11.10;99.90
30206;DHT22;17010;51.306;3.150;2023-05-15T00:21:38;11.10;99.90
30206;DHT22;17010;51.306;3.150;2023-05-15T00:24:05;11.00;99.90
30206;DHT22;17010;51.306;3.150;2023-05-15T00:26:34;11.00;99.90
30206;DHT22;17010;51.306;3.150;2023-05-15T00:29:02;11.00;99.90
30206;DHT22;17010;51.306;3.150;2023-05-15T00:31:29;11.00;99.90
30206;DHT22;17010;51.306;3.150;2023-05-15T00:33:56;11.00;99.90
30206;DHT22;17010;51.306;3.150;2023-05-15T00:36:22;11.00;99.90
30206;DHT22;17010;51.306;3.150;2023-05-15T00:38:51;11.00;99.90
30206;DHT22;17010;51.306;3.150;2023-05-15T00:41:18;11.00;99.90
30206;DHT22;17010;51.306;3.150;2023-05-15T00:43:49;11.00;99.90
30206;DHT22;17010;51.306;3.150;2023-05-15T00:46:18;11.00;99.90
30206;DHT22;17010;51.306;3.150;2023-05-15T00:48:46;11.00;99.90
30206;DHT22;17010;51.306;3.150;2023-05-15T00:51:15;11.10;99.90
30206;DHT22;17010;51.306;3.150;2023-05-15T00:53:42;11.10;99.90
30206;DHT22;17010;51.306;3.150;2023-05-15T00:56:11;11.10;99.90
30206;DHT22;17010;51.306;3.150;2023-05-15T00:58:38;11.20;99.90
30206;DHT22;17010;51.306;3.150;2023-05-15T01:01:06;11.20;99.90
30206;DHT22;17010;51.306;3.150;2023-05-15T01:03:33;11.20;99.90
30206;DHT22;17010;51.306;3.150;2023-05-15T01:05:59;11.30;99.90
30206;DHT22;17010;51.306;3.150;2023-05-15T01:08:32;11.30;99.90
30206;DHT22;17010;51.306;3.150;2023-05-15T01:11:05;11.40;99.90
30206;DHT22;17010;51.306;3.150;2023-05-15T01:13:33;11.40;99.90
30206;DHT22;17010;51.306;3.150;2023-05-15T01:16:01;11.40;99.90
30206;DHT22;17010;51.306;3.150;2023-05-15T01:18:28;11.50;99.90
30206;DHT22;17010;51.306;3.150;2023-05-15T01:24:15;11.50;99.90
30206;DHT22;17010;51.306;3.150;2023-05-15T01:30:11;11.50;99.90
30206;DHT22;17010;51.306;3.150;2023-05-15T01:36:00;11.60;99.90
30206;DHT22;17010;51.306;3.150;2023-05-15T01:38:48;11.60;99.90
30206;DHT22;17010;51.306;3.150;2023-05-15T01:44:21;11.60;99.90
30206;DHT22;17010;51.306;3.150;2023-05-15T01:46:54;11.70;99.90
30206;DHT22;17010;51.306;3.150;2023-05-15T01:49:25;11.70;99.90
30206;DHT22;17010;51.306;3.150;2023-05-15T01:52:03;11.70;99.90
30206;DHT22;17010;51.306;3.150;2023-05-15T01:54:30;11.70;99.90
30206;DHT22;17010;51.306;3.150;2023-05-15T01:56:59;11.70;99.90
30206;DHT22;17010;51.306;3.150;2023-05-15T01:59:26;11.80;99.90
30206;DHT22;17010;51.306;3.150;2023-05-15T02:01:55;11.80;99.90
30206;DHT22;17010;51.306;3.150;2023-05-15T02:04:23;11.90;99.90
30206;DHT22;17010;51.306;3.150;2023-05-15T02:06:52;12.00;99.90
30206;DHT22;17010;51.306;3.150;2023-05-15T02:09:20;12.00;99.90
30206;DHT22;17010;51.306;3.150;2023-05-15T02:11:48;12.00;99.90
30206;DHT22;17010;51.306;3.150;2023-05-15T02:14:15;12.10;99.90
30206;DHT22;17010;51.306;3.150;2023-05-15T02:16:44;12.10;99.90
30206;DHT22;17010;51.306;3.150;2023-05-15T02:19:11;12.10;99.90
30206;DHT22;17010;51.306;3.150;2023-05-15T02:21:38;12.20;99.90
30206;DHT22;17010;51.306;3.150;2023-05-15T02:24:05;12.20;99.90
30206;DHT22;17010;51.306;3.150;2023-05-15T02:27:09;12.20;99.90
30206;DHT22;17010;51.306;3.150;2023-05-15T02:30:07;12.30;99.90
30206;DHT22;17010;51.306;3.150;2023-05-15T02:38:43;12.30;99.90
30206;DHT22;17010;51.306;3.150;2023-05-15T02:41:12;12.30;99.90
30206;DHT22;17010;51.306;3.150;2023-05-15T02:43:40;12.30;99.90
30206;DHT22;17010;51.306;3.150;2023-05-15T02:46:07;12.30;99.90
30206;DHT22;17010;51.306;3.150;2023-05-15T02:48:38;12.30;99.90
30206;DHT22;17010;51.306;3.150;2023-05-15T02:51:06;12.30;99.90
30206;DHT22;17010;51.306;3.150;2023-05-15T02:53:40;12.30;99.90
30206;DHT22;17010;51.306;3.150;2023-05-15T02:56:07;12.40;99.90
30206;DHT22;17010;51.306;3.150;2023-05-15T02:58:35;12.30;99.90
30206;DHT22;17010;51.306;3.150;2023-05-15T03:01:03;12.30;99.90
30206;DHT22;17010;51.306;3.150;2023-05-15T03:03:30;12.40;99.90
30206;DHT22;17010;51.306;3.150;2023-05-15T03:05:57;12.40;99.90
30206;DHT22;17010;51.306;3.150;2023-05-15T03:08:27;12.40;99.90
30206;DHT22;17010;51.306;3.150;2023-05-15T03:10:54;12.40;99.90
30206;DHT22;17010;51.306;3.150;2023-05-15T03:13:20;12.40;99.90
30206;DHT22;17010;51.306;3.150;2023-05-15T03:15:47;12.40;99.90
30206;DHT22;17010;51.306;3.150;2023-05-15T03:18:13;12.40;99.90
30206;DHT22;17010;51.306;3.150;2023-05-15T03:20:40;12.40;99.90
30206;DHT22;17010;51.306;3.150;2023-05-15T03:23:10;12.40;99.90
30206;DHT22;17010;51.306;3.150;2023-05-15T03:25:38;12.40;99.90
30206;DHT22;17010;51.306;3.150;2023-05-15T03:28:04;12.40;99.90
30206;DHT22;17010;51.306;3.150;2023-05-15T03:30:32;12.40;99.90
30206;DHT22;17010;51.306;3.150;2023-05-15T03:32:59;12.30;99.90
30206;DHT22;17010;51.306;3.150;2023-05-15T03:35:29;12.30;99.90
30206;DHT22;17010;51.306;3.150;2023-05-15T03:37:55;12.30;99.90
30206;DHT22;17010;51.306;3.150;2023-05-15T03:40:22;12.30;99.90
30206;DHT22;17010;51.306;3.150;2023-05-15T03:42:49;12.30;99.90
30206;DHT22;17010;51.306;3.150;2023-05-15T03:45:18;12.30;99.90
30206;DHT22;17010;51.306;3.150;2023-05-15T03:47:46;12.30;99.90
30206;DHT22;17010;51.306;3.150;2023-05-15T03:50:14;12.30;99.90
30206;DHT22;17010;51.306;3.150;2023-05-15T03:52:40;12.30;99.90
30206;DHT22;17010;51.306;3.150;2023-05-15T03:55:08;12.30;99.90
30206;DHT22;17010;51.306;3.150;2023-05-15T03:57:35;12.30;99.90
30206;DHT22;17010;51.306;3.150;2023-05-15T04:00:01;12.30;99.90
30206;DHT22;17010;51.306;3.150;2023-05-15T04:02:32;12.30;99.90
30206;DHT22;17010;51.306;3.150;2023-05-15T04:04:59;12.30;99.90
30206;DHT22;17010;51.306;3.150;2023-05-15T04:07:26;12.30;99.90
30206;DHT22;17010;51.306;3.150;2023-05-15T04:09:53;12.30;99.90
30206;DHT22;17010;51.306;3.150;2023-05-15T04:12:20;12.30;99.90
30206;DHT22;17010;51.306;3.150;2023-05-15T04:14:47;12.40;99.90
30206;DHT22;17010;51.306;3.150;2023-05-15T04:17:15;12.40;99.90
30206;DHT22;17010;51.306;3.150;2023-05-15T04:19:42;12.40;99.90
30206;DHT22;17010;51.306;3.150;2023-05-15T04:22:10;12.40;99.90
30206;DHT22;17010;51.306;3.150;2023-05-15T04:24:38;12.40;99.90
30206;DHT22;17010;51.306;3.150;2023-05-15T04:27:04;12.40;99.90
30206;DHT22;17010;51.306;3.150;2023-05-15T04:29:31;12.50;99.90
30206;DHT22;17010;51.306;3.150;2023-05-15T04:32:00;12.50;99.90
30206;DHT22;17010;51.306;3.150;2023-05-15T04:34:27;12.50;99.90
30206;DHT22;17010;51.306;3.150;2023-05-15T04:36:54;12.50;99.90
30206;DHT22;17010;51.306;3.150;2023-05-15T04:39:20;12.60;99.90
30206;DHT22;17010;51.306;3.150;2023-05-15T04:41:47;12.60;99.90
30206;DHT22;17010;51.306;3.150;2023-05-15T04:44:13;12.60;99.90
30206;DHT22;17010;51.306;3.150;2023-05-15T04:46:41;12.60;99.90
30206;DHT22;17010;51.306;3.150;2023-05-15T04:49:08;12.60;99.90
30206;DHT22;17010;51.306;3.150;2023-05-15T04:51:34;12.60;99.90
30206;DHT22;17010;51.306;3.150;2023-05-15T04:54:00;12.70;99.90
30206;DHT22;17010;51.306;3.150;2023-05-15T04:56:27;12.60;99.90
30206;DHT22;17010;51.306;3.150;2023-05-15T04:58:53;12.60;99.90
30206;DHT22;17010;51.306;3.150;2023-05-15T05:01:19;12.60;99.90
30206;DHT22;17010;51.306;3.150;2023-05-15T05:03:46;12.60;99.90
30206;DHT22;17010;51.306;3.150;2023-05-15T05:06:14;12.60;99.90
30206;DHT22;17010;51.306;3.150;2023-05-15T05:08:41;12.60;99.90
30206;DHT22;17010;51.306;3.150;2023-05-15T05:11:07;12.60;99.90
30206;DHT22;17010;51.306;3.150;2023-05-15T05:13:34;12.60;99.90
30206;DHT22;17010;51.306;3.150;2023-05-15T05:16:02;12.60;99.90
30206;DHT22;17010;51.306;3.150;2023-05-15T05:18:29;12.50;99.90
30206;DHT22;17010;51.306;3.150;2023-05-15T05:21:00;12.50;99.90
30206;DHT22;17010;51.306;3.150;2023-05-15T05:23:30;12.60;99.90
30206;DHT22;17010;51.306;3.150;2023-05-15T05:25:58;12.60;99.90
30206;DHT22;17010;51.306;3.150;2023-05-15T05:28:25;12.60;99.90
30206;DHT22;17010;51.306;3.150;2023-05-15T05:30:51;12.60;99.90
30206;DHT22;17010;51.306;3.150;2023-05-15T05:33:18;12.60;99.90
30206;DHT22;17010;51.306;3.150;2023-05-15T05:35:45;12.70;99.90
30206;DHT22;17010;51.306;3.150;2023-05-15T05:38:12;12.70;99.90
30206;DHT22;17010;51.306;3.150;2023-05-15T05:40:39;12.70;99.90
30206;DHT22;17010;51.306;3.150;2023-05-15T05:43:06;12.80;99.90
30206;DHT22;17010;51.306;3.150;2023-05-15T05:45:32;12.80;99.90
30206;DHT22;17010;51.306;3.150;2023-05-15T05:48:00;12.80;99.90
30206;DHT22;17010;51.306;3.150;2023-05-15T05:50:29;12.80;99.90
30206;DHT22;17010;51.306;3.150;2023-05-15T05:52:57;12.90;99.90
30206;DHT22;17010;51.306;3.150;2023-05-15T05:55:29;12.90;99.90
30206;DHT22;17010;51.306;3.150;2023-05-15T05:57:58;12.90;99.90
30206;DHT22;17010;51.306;3.150;2023-05-15T06:00:26;12.90;99.90
30206;DHT22;17010;51.306;3.150;2023-05-15T06:02:55;12.90;99.90
30206;DHT22;17010;51.306;3.150;2023-05-15T06:05:26;13.00;99.90
30206;DHT22;17010;51.306;3.150;2023-05-15T06:07:55;13.00;99.90
30206;DHT22;17010;51.306;3.150;2023-05-15T06:10:21;13.00;99.90
30206;DHT22;17010;51.306;3.150;2023-05-15T06:12:48;13.00;99.90
30206;DHT22;17010;51.306;3.150;2023-05-15T06:15:16;13.10;99.90
30206;DHT22;17010;51.306;3.150;2023-05-15T06:17:44;13.20;99.90
30206;DHT22;17010;51.306;3.150;2023-05-15T06:20:10;13.20;99.90
30206;DHT22;17010;51.306;3.150;2023-05-15T06:22:37;13.20;99.90
30206;DHT22;17010;51.306;3.150;2023-05-15T06:25:05;13.20;99.90
30206;DHT22;17010;51.306;3.150;2023-05-15T06:27:36;13.30;99.90
30206;DHT22;17010;51.306;3.150;2023-05-15T06:30:03;13.30;99.90
30206;DHT22;17010;51.306;3.150;2023-05-15T06:32:30;13.40;99.90
30206;DHT22;17010;51.306;3.150;2023-05-15T06:34:59;13.50;99.90
30206;DHT22;17010;51.306;3.150;2023-05-15T06:37:26;13.40;99.90
30206;DHT22;17010;51.306;3.150;2023-05-15T06:39:54;13.40;99.90
30206;DHT22;17010;51.306;3.150;2023-05-15T06:42:21;13.50;99.90
30206;DHT22;17010;51.306;3.150;2023-05-15T06:44:48;13.50;99.90
30206;DHT22;17010;51.306;3.150;2023-05-15T06:47:15;13.50;99.90
30206;DHT22;17010;51.306;3.150;2023-05-15T06:49:44;13.50;99.90
30206;DHT22;17010;51.306;3.150;2023-05-15T06:52:10;13.60;99.90
30206;DHT22;17010;51.306;3.150;2023-05-15T06:54:37;13.60;99.90
30206;DHT22;17010;51.306;3.150;2023-05-15T06:57:06;13.70;99.90
30206;DHT22;17010;51.306;3.150;2023-05-15T06:59:34;13.70;99.90
30206;DHT22;17010;51.306;3.150;2023-05-15T07:02:02;13.80;99.90
30206;DHT22;17010;51.306;3.150;2023-05-15T07:04:28;13.80;99.90
30206;DHT22;17010;51.306;3.150;2023-05-15T07:06:56;13.80;99.90
30206;DHT22;17010;51.306;3.150;2023-05-15T07:09:27;13.90;99.90
30206;DHT22;17010;51.306;3.150;2023-05-15T07:12:00;13.90;99.90
30206;DHT22;17010;51.306;3.150;2023-05-15T07:14:26;14.00;99.90
30206;DHT22;17010;51.306;3.150;2023-05-15T07:16:52;13.90;99.90
30206;DHT22;17010;51.306;3.150;2023-05-15T07:19:19;14.00;99.90
30206;DHT22;17010;51.306;3.150;2023-05-15T07:21:46;14.00;99.90
30206;DHT22;17010;51.306;3.150;2023-05-15T07:24:13;14.10;99.90
30206;DHT22;17010;51.306;3.150;2023-05-15T07:26:39;14.20;99.90
30206;DHT22;17010;51.306;3.150;2023-05-15T07:29:08;14.40;99.90
30206;DHT22;17010;51.306;3.150;2023-05-15T07:31:35;14.50;99.90
30206;DHT22;17010;51.306;3.150;2023-05-15T07:34:04;14.70;99.90
30206;DHT22;17010;51.306;3.150;2023-05-15T07:36:31;14.80;99.90
30206;DHT22;17010;51.306;3.150;2023-05-15T07:39:00;14.90;99.90
30206;DHT22;17010;51.306;3.150;2023-05-15T07:41:27;15.00;99.90
30206;DHT22;17010;51.306;3.150;2023-05-15T07:43:55;15.00;99.90
30206;DHT22;17010;51.306;3.150;2023-05-15T07:46:23;15.00;99.90
30206;DHT22;17010;51.306;3.150;2023-05-15T07:48:51;14.90;99.90
30206;DHT22;17010;51.306;3.150;2023-05-15T07:51:19;14.90;99.90
30206;DHT22;17010;51.306;3.150;2023-05-15T07:53:45;14.80;99.90
30206;DHT22;17010;51.306;3.150;2023-05-15T07:56:12;14.80;99.90
30206;DHT22;17010;51.306;3.150;2023-05-15T07:58:40;14.70;99.90
30206;DHT22;17010;51.306;3.150;2023-05-15T08:01:07;14.70;99.90
30206;DHT22;17010;51.306;3.150;2023-05-15T08:03:34;14.60;99.90
30206;DHT22;17010;51.306;3.150;2023-05-15T08:06:00;14.60;99.90
30206;DHT22;17010;51.306;3.150;2023-05-15T08:08:27;14.60;99.90
30206;DHT22;17010;51.306;3.150;2023-05-15T08:10:54;14.70;99.90
30206;DHT22;17010;51.306;3.150;2023-05-15T08:13:21;14.70;99.90
30206;DHT22;17010;51.306;3.150;2023-05-15T08:15:48;14.70;99.90
30206;DHT22;17010;51.306;3.150;2023-05-15T08:18:15;14.70;99.90
30206;DHT22;17010;51.306;3.150;2023-05-15T08:20:42;14.60;99.90
30206;DHT22;17010;51.306;3.150;2023-05-15T08:23:10;14.70;99.90
30206;DHT22;17010;51.306;3.150;2023-05-15T08:25:38;14.70;99.90
30206;DHT22;17010;51.306;3.150;2023-05-15T08:28:05;14.70;99.90
30206;DHT22;17010;51.306;3.150;2023-05-15T08:30:31;14.80;99.90
30206;DHT22;17010;51.306;3.150;2023-05-15T08:32:57;14.80;99.90
30206;DHT22;17010;51.306;3.150;2023-05-15T08:35:27;14.80;99.90
30206;DHT22;17010;51.306;3.150;2023-05-15T08:37:55;14.90;99.90
30206;DHT22;17010;51.306;3.150;2023-05-15T08:40:22;15.00;99.90
30206;DHT22;17010;51.306;3.150;2023-05-15T08:42:53;15.00;99.90
30206;DHT22;17010;51.306;3.150;2023-05-15T08:45:20;15.00;99.90
30206;DHT22;17010;51.306;3.150;2023-05-15T08:47:47;15.00;99.90
30206;DHT22;17010;51.306;3.150;2023-05-15T08:50:15;15.00;99.90
30206;DHT22;17010;51.306;3.150;2023-05-15T08:52:47;15.00;99.90
30206;DHT22;17010;51.306;3.150;2023-05-15T08:55:15;15.00;99.90
30206;DHT22;17010;51.306;3.150;2023-05-15T08:57:43;15.00;99.90
30206;DHT22;17010;51.306;3.150;2023-05-15T09:00:13;15.00;99.90
30206;DHT22;17010;51.306;3.150;2023-05-15T09:02:40;15.00;99.90
30206;DHT22;17010;51.306;3.150;2023-05-15T09:05:08;15.00;99.90
30206;DHT22;17010;51.306;3.150;2023-05-15T09:07:37;14.90;99.90
30206;DHT22;17010;51.306;3.150;2023-05-15T09:10:06;14.70;99.90
30206;DHT22;17010;51.306;3.150;2023-05-15T09:12:34;14.50;99.90
30206;DHT22;17010;51.306;3.150;2023-05-15T09:17:37;14.20;99.90
30206;DHT22;17010;51.306;3.150;2023-05-15T09:20:25;14.00;99.90
30206;DHT22;17010;51.306;3.150;2023-05-15T09:22:51;14.00;99.90
30206;DHT22;17010;51.306;3.150;2023-05-15T09:25:39;13.80;99.90
30206;DHT22;17010;51.306;3.150;2023-05-15T09:28:22;13.70;99.90
30206;DHT22;17010;51.306;3.150;2023-05-15T09:30:50;13.60;99.90
30206;DHT22;17010;51.306;3.150;2023-05-15T09:33:27;13.10;99.90
30206;DHT22;17010;51.306;3.150;2023-05-15T09:35:53;12.70;99.90
30206;DHT22;17010;51.306;3.150;2023-05-15T09:38:19;12.20;99.90
30206;DHT22;17010;51.306;3.150;2023-05-15T09:40:46;12.00;99.90
30206;DHT22;17010;51.306;3.150;2023-05-15T09:43:18;11.80;99.90
30206;DHT22;17010;51.306;3.150;2023-05-15T09:45:46;11.50;99.90
30206;DHT22;17010;51.306;3.150;2023-05-15T09:48:17;11.30;99.90
30206;DHT22;17010;51.306;3.150;2023-05-15T09:50:44;11.30;99.90
30206;DHT22;17010;51.306;3.150;2023-05-15T16:14:42;11.30;99.90
30206;DHT22;17010;51.306;3.150;2023-05-15T16:17:19;11.20;99.90
30206;DHT22;17010;51.306;3.150;2023-05-15T16:22:41;11.10;99.90
30206;DHT22;17010;51.306;3.150;2023-05-15T16:25:13;10.90;99.90
30206;DHT22;17010;51.306;3.150;2023-05-15T16:27:57;11.00;99.90
30206;DHT22;17010;51.306;3.150;2023-05-15T16:30:29;10.90;99.90
30206;DHT22;17010;51.306;3.150;2023-05-15T16:33:14;10.90;99.90
30206;DHT22;17010;51.306;3.150;2023-05-15T16:35:47;10.80;99.90
30206;DHT22;17010;51.306;3.150;2023-05-15T16:38:16;10.70;99.90
30206;DHT22;17010;51.306;3.150;2023-05-15T16:40:44;10.80;99.90
30206;DHT22;17010;51.306;3.150;2023-05-15T16:43:30;10.80;99.90
30206;DHT22;17010;51.306;3.150;2023-05-15T16:46:53;10.90;99.90
30206;DHT22;17010;51.306;3.150;2023-05-15T16:49:43;11.00;99.90
30206;DHT22;17010;51.306;3.150;2023-05-15T16:52:21;11.00;99.90
30206;DHT22;17010;51.306;3.150;2023-05-15T19:25:10;10.40;99.90
30206;DHT22;17010;51.306;3.150;2023-05-15T20:42:11;9.90;99.90
30206;DHT22;17010;51.306;3.150;2023-05-15T21:37:18;9.80;99.90
30206;DHT22;17010;51.306;3.150;2023-05-15T21:40:27;9.70;99.90
30206;DHT22;17010;51.306;3.150;2023-05-15T23:11:46;9.60;99.90
30206;DHT22;17010;51.306;3.150;2023-05-15T23:22:14;9.60;99.90
30206;DHT22;17010;51.306;3.150;2023-05-15T23:36:04;9.50;99.90
